createdAt,value
2023-11-07T00:00:29.925Z,9.35
2023-11-07T00:02:57.985Z,9.17
2023-11-07T00:05:26.445Z,9.17
2023-11-07T00:07:54.982Z,9.30
2023-11-07T00:10:28.878Z,9.40
2023-11-07T00:12:58.161Z,9.46
2023-11-07T00:15:26.829Z,9.42
2023-11-07T00:17:55.125Z,9.43
2023-11-07T00:20:24.005Z,9.48
2023-11-07T00:22:51.940Z,9.47
2023-11-07T00:25:20.048Z,9.56
2023-11-07T00:27:49.834Z,9.70
2023-11-07T00:30:17.828Z,9.53
2023-11-07T00:32:45.940Z,9.63
2023-11-07T00:35:14.577Z,9.46
2023-11-07T00:37:42.548Z,9.44
2023-11-07T00:40:14.344Z,9.39
2023-11-07T00:42:43.307Z,9.47
2023-11-07T00:45:13.150Z,9.55
2023-11-07T00:47:41.732Z,9.46
2023-11-07T00:50:11.839Z,9.40
2023-11-07T00:52:41.189Z,9.49
2023-11-07T00:55:09.981Z,9.46
2023-11-07T00:57:38.519Z,9.42
2023-11-07T01:00:07.720Z,9.43
2023-11-07T01:02:37.880Z,9.39
2023-11-07T01:05:06.947Z,9.46
2023-11-07T01:07:35.024Z,9.40
2023-11-07T01:10:04.013Z,9.35
2023-11-07T01:12:32.011Z,9.31
2023-11-07T01:15:00.292Z,9.36
2023-11-07T01:17:29.359Z,9.18
2023-11-07T01:19:58.867Z,9.27
2023-11-07T01:22:27.766Z,9.27
2023-11-07T01:24:56.173Z,9.39
2023-11-07T01:27:24.139Z,9.38
2023-11-07T01:29:52.186Z,9.34
2023-11-07T01:32:21.377Z,9.34
2023-11-07T01:34:49.360Z,9.38
2023-11-07T01:37:19.240Z,9.34
2023-11-07T01:39:47.278Z,9.37
2023-11-07T01:42:15.235Z,9.41
2023-11-07T01:44:51.215Z,9.45
2023-11-07T01:47:20.929Z,9.36
2023-11-07T01:49:50.333Z,9.30
2023-11-07T01:52:21.375Z,9.19
2023-11-07T01:54:52.655Z,9.19
2023-11-07T01:57:22.312Z,9.22
2023-11-07T01:59:51.250Z,9.13
2023-11-07T02:02:20.771Z,9.18
2023-11-07T02:04:49.730Z,9.06
2023-11-07T02:07:19.286Z,9.05
2023-11-07T02:09:48.348Z,8.99
2023-11-07T02:12:16.840Z,9.09
2023-11-07T02:14:45.145Z,9.19
2023-11-07T02:17:13.223Z,9.09
2023-11-07T02:19:41.910Z,9.21
2023-11-07T02:22:12.029Z,9.14
2023-11-07T02:24:41.876Z,9.22
2023-11-07T02:27:09.961Z,9.18
2023-11-07T02:29:38.925Z,9.21
2023-11-07T02:32:08.004Z,9.10
2023-11-07T02:34:36.049Z,9.20
2023-11-07T02:37:04.090Z,9.13
2023-11-07T02:39:32.867Z,9.05
2023-11-07T02:42:02.355Z,8.81
2023-11-07T02:44:33.354Z,8.65
2023-11-07T02:47:01.930Z,8.53
2023-11-07T02:49:29.956Z,8.41
2023-11-07T02:51:58.682Z,8.26
2023-11-07T02:54:27.144Z,8.18
2023-11-07T02:56:55.069Z,8.07
2023-11-07T02:59:24.384Z,7.97
2023-11-07T03:01:53.041Z,8.03
2023-11-07T03:04:21.260Z,8.00
2023-11-07T03:06:49.427Z,7.94
2023-11-07T03:09:17.974Z,7.96
2023-11-07T03:11:46.028Z,8.02
2023-11-07T03:14:14.157Z,8.13
2023-11-07T03:16:44.255Z,8.24
2023-11-07T03:19:12.466Z,8.34
2023-11-07T03:21:40.757Z,8.34
2023-11-07T03:24:09.959Z,8.38
2023-11-07T03:26:38.159Z,8.40
2023-11-07T03:29:06.554Z,8.43
2023-11-07T03:31:35.956Z,8.56
2023-11-07T03:34:05.473Z,8.57
2023-11-07T03:36:34.138Z,8.56
2023-11-07T03:39:02.415Z,8.65
2023-11-07T03:41:30.478Z,8.71
2023-11-07T03:43:58.961Z,8.75
2023-11-07T03:46:27.060Z,8.77
2023-11-07T03:48:55.800Z,8.76
2023-11-07T03:51:25.841Z,8.81
2023-11-07T03:53:55.154Z,8.92
2023-11-07T03:56:23.390Z,8.97
2023-11-07T03:58:52.142Z,8.96
2023-11-07T04:01:20.374Z,9.01
2023-11-07T04:03:48.795Z,8.95
2023-11-07T04:06:17.707Z,8.85
2023-11-07T04:08:47.349Z,8.56
2023-11-07T04:11:16.046Z,8.73
2023-11-07T04:13:44.519Z,8.69
2023-11-07T04:16:12.630Z,8.67
2023-11-07T04:18:41.116Z,8.59
2023-11-07T04:21:10.090Z,8.56
2023-11-07T04:23:38.523Z,8.48
2023-11-07T04:26:09.043Z,8.48
2023-11-07T04:28:39.477Z,8.51
2023-11-07T04:31:08.882Z,8.60
2023-11-07T04:33:37.802Z,8.54
2023-11-07T04:36:07.456Z,8.86
2023-11-07T04:38:36.713Z,8.85
2023-11-07T04:41:06.072Z,8.83
2023-11-07T04:43:37.471Z,8.63
2023-11-07T04:46:06.149Z,8.67
2023-11-07T04:48:34.534Z,8.81
2023-11-07T04:51:04.409Z,8.78
2023-11-07T04:53:34.255Z,8.82
2023-11-07T04:56:03.966Z,8.81
2023-11-07T04:58:32.589Z,8.90
2023-11-07T05:01:03.148Z,8.84
2023-11-07T05:03:38.632Z,8.86
2023-11-07T05:06:09.996Z,8.68
2023-11-07T05:08:38.320Z,8.44
2023-11-07T05:11:06.960Z,8.25
2023-11-07T05:13:35.063Z,8.18
2023-11-07T05:16:05.896Z,7.98
2023-11-07T05:18:34.260Z,7.91
2023-11-07T05:21:03.225Z,7.72
2023-11-07T05:23:31.474Z,7.75
2023-11-07T05:25:59.493Z,7.72
2023-11-07T05:28:27.992Z,7.78
2023-11-07T05:30:56.015Z,7.69
2023-11-07T05:33:25.643Z,7.80
2023-11-07T05:35:54.461Z,7.87
2023-11-07T05:38:23.478Z,7.92
2023-11-07T05:40:52.076Z,7.98
2023-11-07T05:43:20.915Z,8.03
2023-11-07T05:45:49.023Z,8.10
2023-11-07T05:48:17.758Z,8.23
2023-11-07T05:50:47.930Z,8.29
2023-11-07T05:53:17.733Z,8.15
2023-11-07T05:55:46.225Z,8.18
2023-11-07T05:58:15.607Z,8.22
2023-11-07T06:00:44.213Z,8.32
2023-11-07T06:03:14.769Z,8.44
2023-11-07T06:05:45.776Z,8.45
2023-11-07T06:08:15.750Z,8.95
2023-11-07T06:10:44.901Z,9.06
2023-11-07T06:13:13.144Z,9.07
2023-11-07T06:15:41.204Z,9.04
2023-11-07T06:18:10.175Z,9.06
2023-11-07T06:20:38.386Z,9.30
2023-11-07T06:23:06.934Z,9.25
2023-11-07T06:25:37.518Z,9.41
2023-11-07T06:28:05.729Z,9.31
2023-11-07T06:30:36.006Z,9.35
2023-11-07T06:33:05.119Z,9.61
2023-11-07T06:35:33.790Z,9.40
2023-11-07T06:38:02.061Z,9.39
2023-11-07T06:40:30.859Z,9.42
2023-11-07T06:43:00.661Z,10.13
2023-11-07T06:45:28.867Z,11.68
2023-11-07T06:47:57.609Z,11.85
2023-11-07T06:50:27.614Z,11.46
2023-11-07T06:52:56.056Z,10.94
2023-11-07T06:55:26.858Z,11.47
2023-11-07T06:57:56.785Z,11.05
2023-11-07T07:00:27.777Z,11.33
2023-11-07T07:02:57.892Z,10.73
2023-11-07T07:05:27.293Z,10.53
2023-11-07T07:07:56.339Z,10.33
2023-11-07T07:10:26.718Z,10.42
2023-11-07T07:12:55.032Z,10.51
2023-11-07T07:15:23.901Z,10.49
2023-11-07T07:17:53.544Z,10.29
2023-11-07T07:20:23.308Z,10.32
2023-11-07T07:22:52.108Z,10.23
2023-11-07T07:25:22.161Z,10.23
2023-11-07T07:27:51.699Z,10.41
2023-11-07T07:30:23.860Z,10.77
2023-11-07T07:32:53.813Z,10.72
2023-11-07T07:35:23.461Z,10.77
2023-11-07T07:37:53.779Z,10.84
2023-11-07T07:40:27.969Z,10.51
2023-11-07T07:42:59.482Z,10.46
2023-11-07T07:45:32.947Z,10.28
2023-11-07T07:48:05.189Z,10.26
2023-11-07T07:50:34.634Z,10.22
2023-11-07T07:53:07.886Z,10.13
2023-11-07T07:55:38.954Z,11.16
2023-11-07T07:58:08.206Z,13.23
2023-11-07T08:00:39.261Z,15.21
2023-11-07T08:03:10.434Z,15.20
2023-11-07T08:05:42.034Z,14.59
2023-11-07T08:08:11.834Z,13.66
2023-11-07T08:10:41.533Z,13.03
2023-11-07T08:13:11.932Z,12.12
2023-11-07T08:15:40.268Z,12.22
2023-11-07T08:18:10.610Z,11.80
2023-11-07T08:20:39.772Z,11.81
2023-11-07T08:23:09.172Z,11.68
2023-11-07T08:25:37.594Z,11.62
2023-11-07T08:28:11.167Z,11.50
2023-11-07T08:30:39.964Z,11.51
2023-11-07T08:33:10.101Z,11.61
2023-11-07T08:35:40.566Z,11.24
2023-11-07T08:38:09.068Z,11.28
2023-11-07T08:40:38.076Z,11.12
2023-11-07T08:43:08.156Z,11.31
2023-11-07T08:45:36.692Z,11.17
2023-11-07T08:48:05.666Z,11.48
2023-11-07T08:50:36.698Z,11.52
2023-11-07T08:53:06.974Z,11.57
2023-11-07T08:55:35.594Z,11.66
2023-11-07T08:58:06.842Z,11.78
2023-11-07T09:00:35.885Z,11.56
2023-11-07T09:03:05.569Z,11.55
2023-11-07T09:05:35.663Z,11.61
2023-11-07T09:08:06.011Z,11.61
2023-11-07T09:10:34.384Z,11.51
2023-11-07T09:13:05.015Z,11.44
2023-11-07T09:15:33.624Z,11.62
2023-11-07T09:18:01.969Z,11.87
2023-11-07T09:20:30.895Z,11.55
2023-11-07T09:23:00.597Z,11.69
2023-11-07T09:25:29.029Z,11.48
2023-11-07T09:27:58.321Z,11.38
2023-11-07T09:30:26.520Z,11.74
2023-11-07T09:32:55.562Z,11.94
2023-11-07T09:35:24.926Z,11.74
2023-11-07T09:37:53.257Z,11.85
2023-11-07T09:40:26.637Z,11.59
2023-11-07T09:42:55.975Z,11.54
2023-11-07T09:45:25.651Z,11.40
2023-11-07T09:47:55.198Z,11.62
2023-11-07T09:50:25.463Z,11.51
2023-11-07T09:52:56.384Z,11.65
2023-11-07T09:55:31.523Z,11.42
2023-11-07T09:58:15.559Z,11.37
2023-11-07T10:00:47.142Z,11.53
2023-11-07T10:03:16.978Z,11.58
2023-11-07T10:05:49.262Z,11.85
2023-11-07T10:08:18.729Z,12.06
2023-11-07T10:11:11.688Z,12.28
2023-11-07T10:13:40.423Z,12.63
2023-11-07T10:18:50.485Z,12.71
2023-11-07T10:21:32.892Z,13.02
2023-11-07T10:24:02.026Z,13.08
2023-11-07T10:26:32.960Z,12.67
2023-11-07T10:29:19.013Z,12.73
2023-11-07T10:32:00.725Z,12.61
2023-11-07T10:34:30.102Z,12.77
2023-11-07T10:37:00.076Z,12.74
2023-11-07T10:39:28.965Z,12.80
2023-11-07T10:41:59.922Z,12.79
2023-11-07T10:44:30.975Z,12.40
2023-11-07T10:47:01.979Z,12.15
2023-11-07T10:49:32.304Z,11.95
2023-11-07T10:52:04.674Z,11.90
2023-11-07T10:54:33.536Z,11.82
2023-11-07T10:57:08.310Z,12.05
2023-11-07T10:59:41.591Z,12.06
2023-11-07T11:02:10.999Z,12.08
2023-11-07T11:04:43.816Z,11.92
2023-11-07T11:07:13.333Z,11.99
2023-11-07T11:09:42.932Z,12.08
2023-11-07T11:12:14.677Z,12.54
2023-11-07T11:14:43.063Z,12.34
2023-11-07T11:17:20.518Z,12.66
2023-11-07T11:19:58.783Z,12.87
2023-11-07T11:22:32.343Z,13.67
2023-11-07T11:25:15.592Z,13.92
2023-11-07T11:27:51.203Z,13.61
2023-11-07T11:30:19.518Z,13.89
2023-11-07T11:33:07.230Z,13.91
2023-11-07T11:35:39.502Z,13.46
2023-11-07T11:38:14.114Z,13.53
2023-11-07T11:40:56.443Z,13.60
2023-11-07T11:43:27.774Z,13.49
2023-11-07T11:46:00.201Z,13.64
2023-11-07T11:49:09.303Z,13.57
2023-11-07T11:51:39.973Z,13.66
2023-11-07T11:54:09.638Z,13.70
2023-11-07T11:57:05.470Z,14.22
2023-11-07T11:59:55.510Z,14.35
2023-11-07T12:02:41.021Z,14.54
2023-11-07T12:05:20.249Z,14.18
2023-11-07T12:07:49.078Z,13.97
2023-11-07T12:10:22.658Z,14.28
2023-11-07T12:12:59.538Z,13.78
2023-11-07T12:15:29.815Z,13.70
2023-11-07T12:18:00.696Z,13.60
2023-11-07T12:20:29.068Z,13.28
2023-11-07T12:22:57.969Z,13.12
2023-11-07T12:25:26.513Z,13.30
2023-11-07T12:28:06.063Z,12.88
2023-11-07T12:30:36.669Z,13.03
2023-11-07T12:33:07.943Z,13.11
2023-11-07T12:35:36.175Z,13.25
2023-11-07T12:38:07.624Z,13.08
2023-11-07T12:40:37.670Z,12.73
2023-11-07T12:43:09.069Z,12.68
2023-11-07T12:45:40.601Z,12.98
2023-11-07T12:48:11.546Z,13.14
2023-11-07T12:50:46.381Z,13.35
2023-11-07T12:53:16.288Z,13.72
2023-11-07T12:55:52.974Z,13.68
2023-11-07T12:58:28.877Z,13.25
2023-11-07T13:01:00.117Z,12.99
2023-11-07T13:03:34.121Z,13.30
2023-11-07T13:06:05.480Z,13.31
2023-11-07T13:08:36.237Z,13.21
2023-11-07T13:11:17.549Z,13.13
2023-11-07T13:13:46.879Z,13.25
2023-11-07T13:16:17.695Z,13.18
2023-11-07T13:18:46.773Z,12.79
2023-11-07T13:21:15.301Z,12.57
2023-11-07T13:23:43.458Z,12.72
2023-11-07T13:26:12.446Z,12.55
2023-11-07T13:28:43.915Z,12.41
2023-11-07T13:31:13.962Z,12.38
2023-11-07T13:33:45.446Z,12.19
2023-11-07T13:36:15.912Z,12.03
2023-11-07T13:38:47.030Z,11.87
2023-11-07T13:41:15.625Z,11.74
2023-11-07T13:43:44.006Z,11.57
2023-11-07T13:46:18.119Z,11.40
2023-11-07T13:48:50.219Z,11.56
2023-11-07T13:51:18.675Z,11.45
2023-11-07T13:53:46.745Z,11.43
2023-11-07T13:56:16.245Z,11.26
2023-11-07T13:58:44.650Z,11.25
2023-11-07T14:01:13.471Z,11.42
2023-11-07T14:03:42.486Z,11.03
2023-11-07T14:06:12.561Z,11.05
2023-11-07T14:08:41.189Z,11.08
2023-11-07T14:11:09.289Z,11.23
2023-11-07T14:13:37.567Z,11.33
2023-11-07T14:16:06.733Z,11.40
2023-11-07T14:18:35.047Z,11.57
2023-11-07T14:21:04.783Z,11.46
2023-11-07T14:23:34.983Z,11.53
2023-11-07T14:26:03.835Z,11.46
2023-11-07T14:28:34.434Z,11.55
2023-11-07T14:31:08.408Z,11.44
2023-11-07T14:33:37.064Z,11.38
2023-11-07T14:36:08.757Z,11.39
2023-11-07T14:38:38.432Z,11.22
2023-11-07T14:41:08.628Z,11.31
2023-11-07T14:43:37.410Z,11.32
2023-11-07T14:46:07.051Z,11.11
2023-11-07T14:48:35.884Z,11.14
2023-11-07T14:51:04.533Z,11.19
2023-11-07T14:53:32.880Z,11.03
2023-11-07T14:56:04.329Z,10.84
2023-11-07T14:58:34.614Z,10.77
2023-11-07T15:01:03.341Z,10.61
2023-11-07T15:03:32.653Z,10.46
2023-11-07T15:06:03.780Z,10.35
2023-11-07T15:08:32.864Z,10.27
2023-11-07T15:11:04.475Z,10.19
2023-11-07T15:13:33.615Z,10.16
2023-11-07T15:16:03.238Z,10.06
2023-11-07T15:18:32.259Z,10.06
2023-11-07T15:21:01.269Z,10.10
2023-11-07T15:23:29.571Z,10.04
2023-11-07T15:25:58.290Z,10.10
2023-11-07T15:28:29.716Z,10.03
2023-11-07T15:30:58.823Z,10.04
2023-11-07T15:33:28.403Z,10.05
2023-11-07T15:35:57.969Z,10.20
2023-11-07T15:38:27.004Z,10.20
2023-11-07T15:40:56.232Z,10.46
2023-11-07T15:43:25.232Z,10.62
2023-11-07T15:45:54.933Z,10.78
2023-11-07T15:48:23.856Z,10.74
2023-11-07T15:50:53.372Z,10.73
2023-11-07T15:53:21.836Z,10.67
2023-11-07T15:55:50.513Z,10.74
2023-11-07T15:58:19.607Z,10.83
2023-11-07T16:00:51.108Z,10.46
2023-11-07T16:03:21.823Z,10.29
2023-11-07T16:05:50.595Z,10.34
2023-11-07T16:08:19.462Z,10.27
2023-11-07T16:10:48.273Z,10.04
2023-11-07T16:13:18.070Z,9.88
2023-11-07T16:15:47.798Z,9.92
2023-11-07T16:18:17.263Z,9.91
2023-11-07T16:20:47.047Z,9.95
2023-11-07T16:23:15.072Z,9.71
2023-11-07T16:25:43.312Z,9.71
2023-11-07T16:28:11.489Z,9.65
2023-11-07T16:30:40.192Z,9.41
2023-11-07T16:33:11.358Z,9.24
2023-11-07T16:35:40.330Z,9.10
2023-11-07T16:38:14.456Z,9.19
2023-11-07T16:40:45.184Z,9.18
2023-11-07T16:43:14.474Z,9.14
2023-11-07T16:45:44.039Z,9.18
2023-11-07T16:48:13.043Z,9.16
2023-11-07T16:50:42.117Z,9.11
2023-11-07T16:53:11.992Z,9.27
2023-11-07T16:55:40.892Z,9.26
2023-11-07T16:58:09.278Z,9.24
2023-11-07T17:00:38.535Z,9.24
2023-11-07T17:03:07.201Z,9.27
2023-11-07T17:05:36.884Z,9.24
2023-11-07T17:08:08.254Z,9.21
2023-11-07T17:10:39.287Z,9.35
2023-11-07T17:13:07.817Z,9.27
2023-11-07T17:15:36.301Z,9.43
2023-11-07T17:18:08.065Z,9.33
2023-11-07T17:20:36.933Z,9.25
2023-11-07T17:23:05.934Z,9.28
2023-11-07T17:25:35.791Z,9.22
2023-11-07T17:28:05.712Z,9.12
2023-11-07T17:30:34.191Z,9.12
2023-11-07T17:33:02.386Z,9.05
2023-11-07T17:35:30.962Z,8.98
2023-11-07T17:37:59.888Z,9.09
2023-11-07T17:40:29.278Z,9.05
2023-11-07T17:42:57.706Z,9.23
2023-11-07T17:45:28.152Z,9.26
2023-11-07T17:47:56.772Z,9.13
2023-11-07T17:50:26.513Z,9.24
2023-11-07T17:52:54.681Z,9.25
2023-11-07T17:55:23.777Z,9.25
2023-11-07T17:57:52.365Z,9.23
2023-11-07T18:00:23.126Z,9.11
2023-11-07T18:02:54.125Z,9.00
2023-11-07T18:05:22.593Z,9.01
2023-11-07T18:07:51.137Z,9.01
2023-11-07T18:10:19.842Z,9.06
2023-11-07T18:12:48.169Z,9.12
2023-11-07T18:15:16.792Z,9.18
2023-11-07T18:17:45.020Z,9.25
2023-11-07T18:20:14.958Z,9.13
2023-11-07T18:22:43.690Z,9.20
2023-11-07T18:25:13.113Z,9.20
2023-11-07T18:27:43.756Z,9.21
2023-11-07T18:30:12.358Z,9.09
2023-11-07T18:32:40.828Z,9.15
2023-11-07T18:35:09.782Z,9.13
2023-11-07T18:37:39.267Z,8.93
2023-11-07T18:40:08.907Z,8.83
2023-11-07T18:42:37.056Z,8.66
2023-11-07T18:45:07.122Z,8.63
2023-11-07T18:47:35.705Z,8.79
2023-11-07T18:50:06.677Z,8.91
2023-11-07T18:52:35.621Z,8.88
2023-11-07T18:55:06.732Z,8.86
2023-11-07T18:57:35.004Z,8.81
2023-11-07T19:00:03.634Z,8.74
2023-11-07T19:02:31.931Z,8.64
2023-11-07T19:05:00.730Z,8.64
2023-11-07T19:07:29.228Z,8.54
2023-11-07T19:09:57.640Z,8.60
2023-11-07T19:12:29.716Z,8.54
2023-11-07T19:14:58.216Z,8.47
2023-11-07T19:17:26.275Z,8.49
2023-11-07T19:19:56.446Z,8.43
2023-11-07T19:22:24.926Z,8.44
2023-11-07T19:24:53.549Z,8.37
2023-11-07T19:27:23.109Z,8.39
2023-11-07T19:29:53.096Z,8.45
2023-11-07T19:32:21.311Z,8.37
2023-11-07T19:34:49.712Z,8.43
2023-11-07T19:37:18.026Z,8.48
2023-11-07T19:39:49.141Z,8.48
2023-11-07T19:42:17.638Z,8.50
2023-11-07T19:44:47.803Z,8.44
2023-11-07T19:47:17.624Z,8.35
2023-11-07T19:49:46.310Z,8.44
2023-11-07T19:52:14.892Z,8.41
2023-11-07T19:54:43.648Z,8.49
2023-11-07T19:57:12.093Z,8.58
2023-11-07T19:59:40.540Z,8.64
2023-11-07T20:02:09.876Z,8.57
2023-11-07T20:04:39.413Z,8.45
2023-11-07T20:07:07.711Z,8.34
2023-11-07T20:09:36.649Z,8.12
2023-11-07T20:12:05.383Z,7.99
2023-11-07T20:14:33.960Z,7.97
2023-11-07T20:17:02.764Z,7.92
2023-11-07T20:19:30.912Z,7.92
2023-11-07T20:22:00.404Z,7.96
2023-11-07T20:24:29.307Z,7.99
2023-11-07T20:26:57.523Z,8.16
2023-11-07T20:29:25.932Z,8.21
2023-11-07T20:31:54.565Z,8.18
2023-11-07T20:34:23.103Z,8.14
2023-11-07T20:36:51.875Z,7.98
2023-11-07T20:39:25.861Z,7.82
2023-11-07T20:41:53.951Z,7.79
2023-11-07T20:44:31.675Z,7.74
2023-11-07T20:47:04.297Z,7.88
2023-11-07T20:49:32.704Z,7.79
2023-11-07T20:52:03.995Z,7.90
2023-11-07T20:54:35.646Z,7.95
2023-11-07T20:57:04.060Z,8.02
2023-11-07T20:59:32.271Z,8.06
2023-11-07T21:02:01.056Z,8.04
2023-11-07T21:04:29.291Z,8.06
2023-11-07T21:06:57.472Z,7.95
2023-11-07T21:09:27.055Z,7.84
2023-11-07T21:11:57.438Z,7.94
2023-11-07T21:14:28.444Z,7.81
2023-11-07T21:16:56.828Z,7.95
2023-11-07T21:19:27.110Z,8.12
2023-11-07T21:22:01.602Z,8.10
2023-11-07T21:24:30.064Z,8.15
2023-11-07T21:26:59.609Z,8.14
2023-11-07T21:29:28.414Z,8.09
2023-11-07T21:31:56.511Z,8.11
2023-11-07T21:34:24.646Z,8.18
2023-11-07T21:36:53.365Z,8.25
2023-11-07T21:39:24.024Z,8.18
2023-11-07T21:41:54.257Z,8.27
2023-11-07T21:44:25.250Z,8.34
2023-11-07T21:46:55.084Z,8.17
2023-11-07T21:49:23.790Z,8.27
2023-11-07T21:51:51.951Z,8.33
2023-11-07T21:54:20.616Z,8.46
2023-11-07T21:56:49.023Z,8.48
2023-11-07T21:59:19.441Z,8.46
2023-11-07T22:01:50.419Z,8.26
2023-11-07T22:04:18.567Z,8.52
2023-11-07T22:06:46.648Z,8.46
2023-11-07T22:09:18.503Z,8.51
2023-11-07T22:11:46.880Z,8.54
2023-11-07T22:14:16.151Z,8.65
2023-11-07T22:16:45.240Z,8.66
2023-11-07T22:19:14.753Z,8.47
2023-11-07T22:21:43.541Z,8.65
2023-11-07T22:24:12.403Z,8.56
2023-11-07T22:26:41.074Z,8.77
2023-11-07T22:29:09.249Z,8.69
2023-11-07T22:31:37.958Z,8.74
2023-11-07T22:34:06.349Z,8.89
2023-11-07T22:36:35.871Z,8.58
2023-11-07T22:39:04.898Z,8.65
2023-11-07T22:41:33.336Z,8.71
2023-11-07T22:44:01.460Z,8.61
2023-11-07T22:46:32.020Z,8.62
2023-11-07T22:49:00.326Z,8.60
2023-11-07T22:51:28.471Z,8.58
2023-11-07T22:53:58.519Z,8.70
2023-11-07T22:56:27.229Z,8.58
2023-11-07T22:58:55.560Z,8.54
2023-11-07T23:01:26.414Z,8.58
2023-11-07T23:03:54.498Z,8.68
2023-11-07T23:06:24.095Z,8.86
2023-11-07T23:08:54.439Z,8.88
2023-11-07T23:11:23.887Z,8.78
2023-11-07T23:13:52.113Z,8.77
2023-11-07T23:16:21.872Z,8.78
2023-11-07T23:18:50.131Z,8.76
2023-11-07T23:21:18.275Z,8.87
2023-11-07T23:23:46.904Z,8.73
2023-11-07T23:26:14.901Z,8.92
2023-11-07T23:28:44.304Z,8.75
2023-11-07T23:31:12.380Z,8.53
2023-11-07T23:33:40.654Z,8.67
2023-11-07T23:36:10.410Z,8.67
2023-11-07T23:38:39.143Z,8.67
2023-11-07T23:41:07.111Z,8.92
2023-11-07T23:43:35.150Z,8.86
2023-11-07T23:46:05.355Z,8.76
2023-11-07T23:48:33.528Z,8.66
2023-11-07T23:51:05.262Z,8.76
2023-11-07T23:53:33.393Z,8.76
2023-11-07T23:56:01.999Z,8.69
2023-11-07T23:58:30.644Z,9.01
